sensor_id;sensor_type;location;lat;lon;timestamp;P1;durP1;ratioP1;P2;durP2;ratioP2
73693;SDS011;61997;53.974;11.670;2023-08-24T00:01:02;1.85;;;1.10;;
73693;SDS011;61997;53.974;11.670;2023-08-24T00:03:28;1.73;;;1.00;;
73693;SDS011;61997;53.974;11.670;2023-08-24T00:05:53;2.03;;;1.20;;
73693;SDS011;61997;53.974;11.670;2023-08-24T00:08:19;1.60;;;1.00;;
73693;SDS011;61997;53.974;11.670;2023-08-24T00:10:44;1.92;;;0.93;;
73693;SDS011;61997;53.974;11.670;2023-08-24T00:13:13;1.70;;;1.00;;
73693;SDS011;61997;53.974;11.670;2023-08-24T00:15:38;2.20;;;1.10;;
73693;SDS011;61997;53.974;11.670;2023-08-24T00:18:04;3.50;;;1.30;;
73693;SDS011;61997;53.974;11.670;2023-08-24T00:20:30;2.08;;;1.40;;
73693;SDS011;61997;53.974;11.670;2023-08-24T00:22:57;1.58;;;1.00;;
73693;SDS011;61997;53.974;11.670;2023-08-24T00:25:23;1.40;;;1.10;;
73693;SDS011;61997;53.974;11.670;2023-08-24T00:27:49;2.00;;;1.08;;
73693;SDS011;61997;53.974;11.670;2023-08-24T00:30:14;1.75;;;1.10;;
73693;SDS011;61997;53.974;11.670;2023-08-24T00:32:40;1.85;;;1.20;;
73693;SDS011;61997;53.974;11.670;2023-08-24T00:35:05;1.92;;;1.00;;
73693;SDS011;61997;53.974;11.670;2023-08-24T00:37:32;1.75;;;1.10;;
73693;SDS011;61997;53.974;11.670;2023-08-24T00:40:01;1.40;;;0.93;;
73693;SDS011;61997;53.974;11.670;2023-08-24T00:42:36;1.20;;;0.90;;
73693;SDS011;61997;53.974;11.670;2023-08-24T00:45:02;2.95;;;1.33;;
73693;SDS011;61997;53.974;11.670;2023-08-24T00:47:28;1.88;;;1.20;;
73693;SDS011;61997;53.974;11.670;2023-08-24T00:49:54;1.77;;;1.10;;
73693;SDS011;61997;53.974;11.670;2023-08-24T00:52:19;2.72;;;1.13;;
73693;SDS011;61997;53.974;11.670;2023-08-24T00:54:45;2.28;;;1.23;;
73693;SDS011;61997;53.974;11.670;2023-08-24T00:57:10;2.55;;;1.08;;
73693;SDS011;61997;53.974;11.670;2023-08-24T00:59:36;1.75;;;1.10;;
73693;SDS011;61997;53.974;11.670;2023-08-24T01:02:01;1.55;;;1.00;;
73693;SDS011;61997;53.974;11.670;2023-08-24T01:04:27;1.95;;;1.02;;
73693;SDS011;61997;53.974;11.670;2023-08-24T01:06:52;2.05;;;1.00;;
73693;SDS011;61997;53.974;11.670;2023-08-24T01:09:18;1.77;;;1.10;;
73693;SDS011;61997;53.974;11.670;2023-08-24T01:14:32;2.38;;;1.20;;
73693;SDS011;61997;53.974;11.670;2023-08-24T01:17:01;1.80;;;1.10;;
73693;SDS011;61997;53.974;11.670;2023-08-24T01:21:53;2.00;;;1.02;;
73693;SDS011;61997;53.974;11.670;2023-08-24T01:24:24;1.48;;;1.00;;
73693;SDS011;61997;53.974;11.670;2023-08-24T01:26:56;1.58;;;1.00;;
73693;SDS011;61997;53.974;11.670;2023-08-24T01:29:21;3.05;;;1.05;;
73693;SDS011;61997;53.974;11.670;2023-08-24T01:31:50;2.35;;;1.20;;
73693;SDS011;61997;53.974;11.670;2023-08-24T01:34:16;2.08;;;1.10;;
73693;SDS011;61997;53.974;11.670;2023-08-24T01:36:41;2.20;;;1.35;;
73693;SDS011;61997;53.974;11.670;2023-08-24T01:39:21;2.00;;;1.00;;
73693;SDS011;61997;53.974;11.670;2023-08-24T01:41:55;1.63;;;1.13;;
73693;SDS011;61997;53.974;11.670;2023-08-24T01:44:21;1.77;;;1.00;;
73693;SDS011;61997;53.974;11.670;2023-08-24T01:46:48;1.67;;;1.00;;
73693;SDS011;61997;53.974;11.670;2023-08-24T01:49:18;1.63;;;1.10;;
73693;SDS011;61997;53.974;11.670;2023-08-24T01:51:43;1.10;;;0.90;;
73693;SDS011;61997;53.974;11.670;2023-08-24T01:54:09;1.92;;;1.05;;
73693;SDS011;61997;53.974;11.670;2023-08-24T01:56:35;1.75;;;1.02;;
73693;SDS011;61997;53.974;11.670;2023-08-24T01:59:00;2.50;;;0.95;;
73693;SDS011;61997;53.974;11.670;2023-08-24T02:01:25;1.73;;;1.10;;
73693;SDS011;61997;53.974;11.670;2023-08-24T02:03:51;1.20;;;0.88;;
73693;SDS011;61997;53.974;11.670;2023-08-24T02:06:16;1.83;;;0.95;;
73693;SDS011;61997;53.974;11.670;2023-08-24T02:08:41;1.77;;;1.00;;
73693;SDS011;61997;53.974;11.670;2023-08-24T02:11:09;1.80;;;1.02;;
73693;SDS011;61997;53.974;11.670;2023-08-24T02:13:35;1.88;;;1.10;;
73693;SDS011;61997;53.974;11.670;2023-08-24T02:16:04;1.85;;;1.17;;
73693;SDS011;61997;53.974;11.670;2023-08-24T02:18:30;2.42;;;1.10;;
73693;SDS011;61997;53.974;11.670;2023-08-24T02:20:56;1.42;;;1.05;;
73693;SDS011;61997;53.974;11.670;2023-08-24T02:23:21;1.65;;;1.17;;
73693;SDS011;61997;53.974;11.670;2023-08-24T02:25:46;1.85;;;1.10;;
73693;SDS011;61997;53.974;11.670;2023-08-24T02:28:12;1.50;;;1.10;;
73693;SDS011;61997;53.974;11.670;2023-08-24T02:30:37;1.83;;;1.00;;
73693;SDS011;61997;53.974;11.670;2023-08-24T02:33:04;2.83;;;1.10;;
73693;SDS011;61997;53.974;11.670;2023-08-24T02:35:29;1.38;;;0.90;;
73693;SDS011;61997;53.974;11.670;2023-08-24T02:37:54;1.92;;;1.20;;
73693;SDS011;61997;53.974;11.670;2023-08-24T02:40:22;1.85;;;1.00;;
73693;SDS011;61997;53.974;11.670;2023-08-24T02:42:47;2.15;;;0.98;;
73693;SDS011;61997;53.974;11.670;2023-08-24T02:45:13;4.00;;;1.10;;
73693;SDS011;61997;53.974;11.670;2023-08-24T02:47:38;2.08;;;1.10;;
73693;SDS011;61997;53.974;11.670;2023-08-24T02:50:04;1.38;;;0.93;;
73693;SDS011;61997;53.974;11.670;2023-08-24T02:52:31;2.10;;;1.10;;
73693;SDS011;61997;53.974;11.670;2023-08-24T02:54:57;2.03;;;1.10;;
73693;SDS011;61997;53.974;11.670;2023-08-24T02:57:23;1.73;;;1.02;;
73693;SDS011;61997;53.974;11.670;2023-08-24T02:59:48;1.70;;;1.10;;
73693;SDS011;61997;53.974;11.670;2023-08-24T03:02:14;2.10;;;1.30;;
73693;SDS011;61997;53.974;11.670;2023-08-24T03:04:39;1.92;;;1.13;;
73693;SDS011;61997;53.974;11.670;2023-08-24T03:07:04;1.42;;;1.00;;
73693;SDS011;61997;53.974;11.670;2023-08-24T03:09:33;1.98;;;1.00;;
73693;SDS011;61997;53.974;11.670;2023-08-24T03:12:01;2.35;;;1.08;;
73693;SDS011;61997;53.974;11.670;2023-08-24T03:14:26;1.65;;;1.00;;
73693;SDS011;61997;53.974;11.670;2023-08-24T03:16:51;1.40;;;0.95;;
73693;SDS011;61997;53.974;11.670;2023-08-24T03:19:17;1.77;;;1.10;;
73693;SDS011;61997;53.974;11.670;2023-08-24T03:21:43;1.83;;;1.00;;
73693;SDS011;61997;53.974;11.670;2023-08-24T03:24:09;1.70;;;1.05;;
73693;SDS011;61997;53.974;11.670;2023-08-24T03:26:34;1.92;;;1.00;;
73693;SDS011;61997;53.974;11.670;2023-08-24T03:28:59;2.22;;;1.20;;
73693;SDS011;61997;53.974;11.670;2023-08-24T03:31:25;1.75;;;0.90;;
73693;SDS011;61997;53.974;11.670;2023-08-24T03:33:51;2.95;;;1.10;;
73693;SDS011;61997;53.974;11.670;2023-08-24T03:36:16;1.40;;;1.00;;
73693;SDS011;61997;53.974;11.670;2023-08-24T03:38:42;2.38;;;1.10;;
73693;SDS011;61997;53.974;11.670;2023-08-24T03:41:07;1.70;;;0.95;;
73693;SDS011;61997;53.974;11.670;2023-08-24T03:43:33;2.55;;;1.00;;
73693;SDS011;61997;53.974;11.670;2023-08-24T03:46:00;1.85;;;0.90;;
73693;SDS011;61997;53.974;11.670;2023-08-24T03:48:26;1.30;;;0.93;;
73693;SDS011;61997;53.974;11.670;2023-08-24T03:50:55;2.53;;;1.20;;
73693;SDS011;61997;53.974;11.670;2023-08-24T03:53:22;2.25;;;0.98;;
73693;SDS011;61997;53.974;11.670;2023-08-24T03:55:48;3.25;;;1.05;;
73693;SDS011;61997;53.974;11.670;2023-08-24T03:58:14;1.63;;;0.98;;
73693;SDS011;61997;53.974;11.670;2023-08-24T04:00:39;2.72;;;1.10;;
73693;SDS011;61997;53.974;11.670;2023-08-24T04:03:06;1.60;;;1.10;;
73693;SDS011;61997;53.974;11.670;2023-08-24T04:05:32;2.05;;;1.13;;
73693;SDS011;61997;53.974;11.670;2023-08-24T04:07:57;1.40;;;0.95;;
73693;SDS011;61997;53.974;11.670;2023-08-24T04:10:23;2.15;;;1.10;;
73693;SDS011;61997;53.974;11.670;2023-08-24T04:12:48;2.20;;;1.20;;
73693;SDS011;61997;53.974;11.670;2023-08-24T04:15:13;1.42;;;0.90;;
73693;SDS011;61997;53.974;11.670;2023-08-24T04:17:39;2.05;;;1.00;;
73693;SDS011;61997;53.974;11.670;2023-08-24T04:20:04;1.55;;;0.93;;
73693;SDS011;61997;53.974;11.670;2023-08-24T04:22:31;1.50;;;1.02;;
73693;SDS011;61997;53.974;11.670;2023-08-24T04:24:57;1.98;;;1.08;;
73693;SDS011;61997;53.974;11.670;2023-08-24T04:27:22;1.40;;;0.90;;
73693;SDS011;61997;53.974;11.670;2023-08-24T04:29:48;1.58;;;1.00;;
73693;SDS011;61997;53.974;11.670;2023-08-24T04:32:14;1.42;;;0.90;;
73693;SDS011;61997;53.974;11.670;2023-08-24T04:34:39;1.90;;;0.90;;
73693;SDS011;61997;53.974;11.670;2023-08-24T04:37:05;1.40;;;0.90;;
73693;SDS011;61997;53.974;11.670;2023-08-24T04:39:31;2.08;;;1.02;;
73693;SDS011;61997;53.974;11.670;2023-08-24T04:41:56;1.65;;;0.90;;
73693;SDS011;61997;53.974;11.670;2023-08-24T04:44:22;1.30;;;0.95;;
73693;SDS011;61997;53.974;11.670;2023-08-24T04:46:47;2.15;;;0.90;;
73693;SDS011;61997;53.974;11.670;2023-08-24T04:49:14;1.63;;;1.00;;
73693;SDS011;61997;53.974;11.670;2023-08-24T04:51:39;2.38;;;1.00;;
73693;SDS011;61997;53.974;11.670;2023-08-24T04:54:05;1.40;;;0.98;;
73693;SDS011;61997;53.974;11.670;2023-08-24T04:56:30;1.35;;;0.88;;
73693;SDS011;61997;53.974;11.670;2023-08-24T04:58:56;1.60;;;0.90;;
73693;SDS011;61997;53.974;11.670;2023-08-24T05:01:22;2.33;;;1.00;;
73693;SDS011;61997;53.974;11.670;2023-08-24T05:03:51;1.73;;;1.00;;
73693;SDS011;61997;53.974;11.670;2023-08-24T05:06:17;1.65;;;1.33;;
73693;SDS011;61997;53.974;11.670;2023-08-24T05:08:43;2.42;;;1.40;;
73693;SDS011;61997;53.974;11.670;2023-08-24T05:11:16;2.10;;;0.98;;
73693;SDS011;61997;53.974;11.670;2023-08-24T05:13:43;1.40;;;0.90;;
73693;SDS011;61997;53.974;11.670;2023-08-24T05:16:11;2.28;;;0.98;;
73693;SDS011;61997;53.974;11.670;2023-08-24T05:18:37;1.00;;;0.63;;
73693;SDS011;61997;53.974;11.670;2023-08-24T05:21:03;1.42;;;0.80;;
73693;SDS011;61997;53.974;11.670;2023-08-24T05:23:29;2.25;;;1.00;;
73693;SDS011;61997;53.974;11.670;2023-08-24T05:25:58;1.20;;;0.90;;
73693;SDS011;61997;53.974;11.670;2023-08-24T05:28:25;2.08;;;0.90;;
73693;SDS011;61997;53.974;11.670;2023-08-24T05:30:51;1.98;;;1.00;;
73693;SDS011;61997;53.974;11.670;2023-08-24T05:33:17;1.42;;;0.98;;
73693;SDS011;61997;53.974;11.670;2023-08-24T05:35:42;2.13;;;0.82;;
73693;SDS011;61997;53.974;11.670;2023-08-24T05:38:07;1.25;;;0.85;;
73693;SDS011;61997;53.974;11.670;2023-08-24T05:40:33;1.50;;;0.82;;
73693;SDS011;61997;53.974;11.670;2023-08-24T05:42:59;1.88;;;1.00;;
73693;SDS011;61997;53.974;11.670;2023-08-24T05:45:25;1.25;;;0.70;;
73693;SDS011;61997;53.974;11.670;2023-08-24T05:47:50;1.00;;;0.70;;
73693;SDS011;61997;53.974;11.670;2023-08-24T05:50:15;1.17;;;0.70;;
73693;SDS011;61997;53.974;11.670;2023-08-24T05:52:41;1.10;;;0.80;;
73693;SDS011;61997;53.974;11.670;2023-08-24T05:55:06;1.15;;;0.73;;
73693;SDS011;61997;53.974;11.670;2023-08-24T05:57:32;1.30;;;0.80;;
73693;SDS011;61997;53.974;11.670;2023-08-24T05:59:57;1.17;;;0.70;;
73693;SDS011;61997;53.974;11.670;2023-08-24T06:02:23;1.45;;;0.80;;
73693;SDS011;61997;53.974;11.670;2023-08-24T06:04:48;1.15;;;0.70;;
73693;SDS011;61997;53.974;11.670;2023-08-24T06:07:15;2.60;;;0.80;;
73693;SDS011;61997;53.974;11.670;2023-08-24T06:09:41;1.60;;;0.82;;
73693;SDS011;61997;53.974;11.670;2023-08-24T06:12:07;1.25;;;0.80;;
73693;SDS011;61997;53.974;11.670;2023-08-24T06:14:32;2.13;;;1.15;;
73693;SDS011;61997;53.974;11.670;2023-08-24T06:16:58;1.00;;;0.60;;
73693;SDS011;61997;53.974;11.670;2023-08-24T06:19:23;1.58;;;0.77;;
73693;SDS011;61997;53.974;11.670;2023-08-24T06:21:48;1.90;;;1.05;;
73693;SDS011;61997;53.974;11.670;2023-08-24T06:24:14;1.33;;;0.80;;
73693;SDS011;61997;53.974;11.670;2023-08-24T06:26:39;1.27;;;0.88;;
73693;SDS011;61997;53.974;11.670;2023-08-24T06:29:05;1.52;;;0.90;;
73693;SDS011;61997;53.974;11.670;2023-08-24T06:31:30;1.00;;;0.70;;
73693;SDS011;61997;53.974;11.670;2023-08-24T06:33:56;1.20;;;0.80;;
73693;SDS011;61997;53.974;11.670;2023-08-24T06:36:21;2.08;;;0.80;;
73693;SDS011;61997;53.974;11.670;2023-08-24T06:38:47;2.65;;;1.00;;
73693;SDS011;61997;53.974;11.670;2023-08-24T06:41:12;1.40;;;0.77;;
73693;SDS011;61997;53.974;11.670;2023-08-24T06:43:38;0.90;;;0.70;;
73693;SDS011;61997;53.974;11.670;2023-08-24T06:46:04;1.95;;;0.70;;
73693;SDS011;61997;53.974;11.670;2023-08-24T06:48:33;1.38;;;0.70;;
73693;SDS011;61997;53.974;11.670;2023-08-24T06:51:02;1.73;;;0.70;;
73693;SDS011;61997;53.974;11.670;2023-08-24T06:53:27;1.20;;;0.70;;
73693;SDS011;61997;53.974;11.670;2023-08-24T06:55:56;1.85;;;0.90;;
73693;SDS011;61997;53.974;11.670;2023-08-24T06:58:22;1.08;;;0.70;;
73693;SDS011;61997;53.974;11.670;2023-08-24T07:00:47;1.10;;;0.70;;
73693;SDS011;61997;53.974;11.670;2023-08-24T07:03:15;1.73;;;0.90;;
73693;SDS011;61997;53.974;11.670;2023-08-24T07:05:42;1.27;;;0.88;;
73693;SDS011;61997;53.974;11.670;2023-08-24T07:08:07;1.20;;;0.60;;
73693;SDS011;61997;53.974;11.670;2023-08-24T07:10:32;0.85;;;0.60;;
73693;SDS011;61997;53.974;11.670;2023-08-24T07:12:58;1.17;;;0.70;;
73693;SDS011;61997;53.974;11.670;2023-08-24T07:15:23;1.80;;;0.60;;
73693;SDS011;61997;53.974;11.670;2023-08-24T07:17:49;0.98;;;0.60;;
73693;SDS011;61997;53.974;11.670;2023-08-24T07:20:14;1.15;;;0.70;;
73693;SDS011;61997;53.974;11.670;2023-08-24T07:22:40;1.08;;;0.70;;
73693;SDS011;61997;53.974;11.670;2023-08-24T07:25:06;1.75;;;0.70;;
73693;SDS011;61997;53.974;11.670;2023-08-24T07:27:34;1.23;;;0.60;;
73693;SDS011;61997;53.974;11.670;2023-08-24T07:30:00;1.13;;;0.60;;
73693;SDS011;61997;53.974;11.670;2023-08-24T07:32:30;1.15;;;0.70;;
73693;SDS011;61997;53.974;11.670;2023-08-24T07:34:56;1.73;;;0.50;;
73693;SDS011;61997;53.974;11.670;2023-08-24T07:37:23;1.40;;;0.60;;
73693;SDS011;61997;53.974;11.670;2023-08-24T07:39:48;1.05;;;0.70;;
73693;SDS011;61997;53.974;11.670;2023-08-24T07:42:14;1.15;;;0.70;;
73693;SDS011;61997;53.974;11.670;2023-08-24T07:44:39;0.63;;;0.50;;
73693;SDS011;61997;53.974;11.670;2023-08-24T07:47:05;1.17;;;0.90;;
73693;SDS011;61997;53.974;11.670;2023-08-24T07:49:30;1.02;;;0.68;;
73693;SDS011;61997;53.974;11.670;2023-08-24T07:51:56;0.85;;;0.60;;
73693;SDS011;61997;53.974;11.670;2023-08-24T07:54:23;1.33;;;0.70;;
73693;SDS011;61997;53.974;11.670;2023-08-24T07:56:49;1.20;;;0.63;;
73693;SDS011;61997;53.974;11.670;2023-08-24T07:59:15;2.35;;;0.93;;
73693;SDS011;61997;53.974;11.670;2023-08-24T08:01:40;1.10;;;0.65;;
73693;SDS011;61997;53.974;11.670;2023-08-24T08:04:06;1.08;;;0.65;;
73693;SDS011;61997;53.974;11.670;2023-08-24T08:06:31;0.88;;;0.50;;
73693;SDS011;61997;53.974;11.670;2023-08-24T08:08:56;1.23;;;0.70;;
73693;SDS011;61997;53.974;11.670;2023-08-24T08:11:23;1.10;;;0.65;;
73693;SDS011;61997;53.974;11.670;2023-08-24T08:13:48;1.23;;;0.60;;
73693;SDS011;61997;53.974;11.670;2023-08-24T08:16:13;0.63;;;0.57;;
73693;SDS011;61997;53.974;11.670;2023-08-24T08:18:39;1.10;;;0.55;;
73693;SDS011;61997;53.974;11.670;2023-08-24T08:21:14;0.90;;;0.60;;
73693;SDS011;61997;53.974;11.670;2023-08-24T08:23:42;1.73;;;0.70;;
73693;SDS011;61997;53.974;11.670;2023-08-24T08:26:09;0.93;;;0.50;;
73693;SDS011;61997;53.974;11.670;2023-08-24T08:28:35;2.00;;;0.60;;
73693;SDS011;61997;53.974;11.670;2023-08-24T08:31:00;1.75;;;0.60;;
73693;SDS011;61997;53.974;11.670;2023-08-24T08:33:26;0.98;;;0.50;;
73693;SDS011;61997;53.974;11.670;2023-08-24T08:35:51;0.95;;;0.60;;
73693;SDS011;61997;53.974;11.670;2023-08-24T08:38:16;0.98;;;0.60;;
73693;SDS011;61997;53.974;11.670;2023-08-24T08:40:42;0.75;;;0.57;;
73693;SDS011;61997;53.974;11.670;2023-08-24T08:43:08;1.10;;;0.70;;
73693;SDS011;61997;53.974;11.670;2023-08-24T08:45:34;1.00;;;0.60;;
73693;SDS011;61997;53.974;11.670;2023-08-24T08:47:59;2.40;;;0.80;;
73693;SDS011;61997;53.974;11.670;2023-08-24T08:50:26;1.60;;;0.70;;
73693;SDS011;61997;53.974;11.670;2023-08-24T08:52:52;1.85;;;0.70;;
73693;SDS011;61997;53.974;11.670;2023-08-24T08:55:18;1.08;;;0.57;;
73693;SDS011;61997;53.974;11.670;2023-08-24T08:57:45;1.30;;;0.70;;
73693;SDS011;61997;53.974;11.670;2023-08-24T09:00:12;1.02;;;0.60;;
73693;SDS011;61997;53.974;11.670;2023-08-24T09:02:40;1.15;;;0.65;;
73693;SDS011;61997;53.974;11.670;2023-08-24T09:05:08;1.65;;;0.60;;
73693;SDS011;61997;53.974;11.670;2023-08-24T09:07:34;1.13;;;0.65;;
73693;SDS011;61997;53.974;11.670;2023-08-24T09:10:00;1.35;;;0.60;;
73693;SDS011;61997;53.974;11.670;2023-08-24T09:12:25;0.75;;;0.52;;
73693;SDS011;61997;53.974;11.670;2023-08-24T09:14:51;1.23;;;0.60;;
73693;SDS011;61997;53.974;11.670;2023-08-24T09:17:20;0.98;;;0.60;;
73693;SDS011;61997;53.974;11.670;2023-08-24T09:19:46;0.95;;;0.73;;
73693;SDS011;61997;53.974;11.670;2023-08-24T09:22:14;1.45;;;0.70;;
73693;SDS011;61997;53.974;11.670;2023-08-24T09:24:40;1.00;;;0.60;;
73693;SDS011;61997;53.974;11.670;2023-08-24T09:27:18;0.95;;;0.60;;
73693;SDS011;61997;53.974;11.670;2023-08-24T09:29:48;1.10;;;0.60;;
73693;SDS011;61997;53.974;11.670;2023-08-24T09:32:14;1.08;;;0.60;;
73693;SDS011;61997;53.974;11.670;2023-08-24T09:34:40;1.30;;;0.70;;
73693;SDS011;61997;53.974;11.670;2023-08-24T09:37:12;0.80;;;0.50;;
73693;SDS011;61997;53.974;11.670;2023-08-24T09:39:39;1.83;;;0.75;;
73693;SDS011;61997;53.974;11.670;2023-08-24T09:42:04;1.38;;;0.68;;
73693;SDS011;61997;53.974;11.670;2023-08-24T09:44:30;1.40;;;0.60;;
73693;SDS011;61997;53.974;11.670;2023-08-24T09:46:55;1.00;;;0.60;;
73693;SDS011;61997;53.974;11.670;2023-08-24T09:49:21;0.88;;;0.55;;
73693;SDS011;61997;53.974;11.670;2023-08-24T09:51:46;1.20;;;0.60;;
73693;SDS011;61997;53.974;11.670;2023-08-24T09:54:14;1.48;;;0.65;;
73693;SDS011;61997;53.974;11.670;2023-08-24T09:56:41;0.75;;;0.60;;
73693;SDS011;61997;53.974;11.670;2023-08-24T10:01:43;1.05;;;0.60;;
73693;SDS011;61997;53.974;11.670;2023-08-24T10:04:12;0.77;;;0.50;;
73693;SDS011;61997;53.974;11.670;2023-08-24T10:06:38;1.45;;;0.50;;
73693;SDS011;61997;53.974;11.670;2023-08-24T10:09:06;1.10;;;0.60;;
73693;SDS011;61997;53.974;11.670;2023-08-24T10:11:34;1.33;;;0.50;;
73693;SDS011;61997;53.974;11.670;2023-08-24T10:19:07;1.37;;;0.60;;
73693;SDS011;61997;53.974;11.670;2023-08-24T10:21:32;1.30;;;0.60;;
73693;SDS011;61997;53.974;11.670;2023-08-24T10:23:58;1.75;;;0.60;;
73693;SDS011;61997;53.974;11.670;2023-08-24T10:26:24;1.65;;;0.68;;
73693;SDS011;61997;53.974;11.670;2023-08-24T10:28:50;1.23;;;0.75;;
73693;SDS011;61997;53.974;11.670;2023-08-24T10:31:16;1.30;;;0.50;;
73693;SDS011;61997;53.974;11.670;2023-08-24T10:33:43;1.13;;;0.60;;
73693;SDS011;61997;53.974;11.670;2023-08-24T10:36:10;1.30;;;0.70;;
73693;SDS011;61997;53.974;11.670;2023-08-24T10:38:39;1.92;;;0.60;;
73693;SDS011;61997;53.974;11.670;2023-08-24T10:41:07;0.93;;;0.60;;
73693;SDS011;61997;53.974;11.670;2023-08-24T10:43:39;0.70;;;0.50;;
73693;SDS011;61997;53.974;11.670;2023-08-24T10:46:11;1.05;;;0.65;;
73693;SDS011;61997;53.974;11.670;2023-08-24T10:54:06;1.15;;;0.50;;
73693;SDS011;61997;53.974;11.670;2023-08-24T10:56:36;0.93;;;0.40;;
73693;SDS011;61997;53.974;11.670;2023-08-24T10:59:16;1.08;;;0.60;;
73693;SDS011;61997;53.974;11.670;2023-08-24T11:01:43;1.10;;;0.63;;
73693;SDS011;61997;53.974;11.670;2023-08-24T11:04:19;0.75;;;0.50;;
73693;SDS011;61997;53.974;11.670;2023-08-24T11:09:55;1.25;;;0.90;;
73693;SDS011;61997;53.974;11.670;2023-08-24T11:12:20;0.90;;;0.52;;
73693;SDS011;61997;53.974;11.670;2023-08-24T11:14:49;1.02;;;0.60;;
73693;SDS011;61997;53.974;11.670;2023-08-24T11:17:24;1.00;;;0.60;;
73693;SDS011;61997;53.974;11.670;2023-08-24T11:19:50;1.60;;;0.50;;
73693;SDS011;61997;53.974;11.670;2023-08-24T11:22:17;0.68;;;0.50;;
73693;SDS011;61997;53.974;11.670;2023-08-24T11:24:43;0.80;;;0.52;;
73693;SDS011;61997;53.974;11.670;2023-08-24T11:27:08;1.00;;;0.57;;
73693;SDS011;61997;53.974;11.670;2023-08-24T11:29:34;0.82;;;0.50;;
73693;SDS011;61997;53.974;11.670;2023-08-24T11:31:59;1.00;;;0.60;;
73693;SDS011;61997;53.974;11.670;2023-08-24T11:34:24;0.93;;;0.52;;
73693;SDS011;61997;53.974;11.670;2023-08-24T11:36:50;1.20;;;0.60;;
73693;SDS011;61997;53.974;11.670;2023-08-24T11:39:19;1.23;;;0.65;;
73693;SDS011;61997;53.974;11.670;2023-08-24T11:44:26;0.80;;;0.50;;
73693;SDS011;61997;53.974;11.670;2023-08-24T11:46:52;1.10;;;0.60;;
73693;SDS011;61997;53.974;11.670;2023-08-24T11:49:17;2.17;;;0.70;;
73693;SDS011;61997;53.974;11.670;2023-08-24T11:51:43;1.63;;;0.60;;
73693;SDS011;61997;53.974;11.670;2023-08-24T11:54:08;0.88;;;0.60;;
73693;SDS011;61997;53.974;11.670;2023-08-24T11:56:41;1.10;;;0.60;;
73693;SDS011;61997;53.974;11.670;2023-08-24T11:59:10;1.50;;;0.68;;
73693;SDS011;61997;53.974;11.670;2023-08-24T12:01:36;1.05;;;0.63;;
73693;SDS011;61997;53.974;11.670;2023-08-24T12:04:02;0.77;;;0.60;;
73693;SDS011;61997;53.974;11.670;2023-08-24T12:06:28;1.13;;;0.60;;
73693;SDS011;61997;53.974;11.670;2023-08-24T12:08:53;0.98;;;0.52;;
73693;SDS011;61997;53.974;11.670;2023-08-24T12:11:20;1.60;;;0.65;;
73693;SDS011;61997;53.974;11.670;2023-08-24T12:13:50;0.82;;;0.50;;
73693;SDS011;61997;53.974;11.670;2023-08-24T12:16:18;0.77;;;0.60;;
73693;SDS011;61997;53.974;11.670;2023-08-24T12:18:54;1.23;;;0.60;;
73693;SDS011;61997;53.974;11.670;2023-08-24T12:21:23;1.50;;;0.60;;
73693;SDS011;61997;53.974;11.670;2023-08-24T12:23:55;0.70;;;0.57;;
73693;SDS011;61997;53.974;11.670;2023-08-24T12:26:22;1.00;;;0.63;;
73693;SDS011;61997;53.974;11.670;2023-08-24T12:28:50;1.13;;;0.55;;
73693;SDS011;61997;53.974;11.670;2023-08-24T12:31:19;2.53;;;0.70;;
73693;SDS011;61997;53.974;11.670;2023-08-24T12:33:45;1.20;;;0.60;;
73693;SDS011;61997;53.974;11.670;2023-08-24T12:36:11;0.73;;;0.55;;
73693;SDS011;61997;53.974;11.670;2023-08-24T12:38:36;0.88;;;0.60;;
73693;SDS011;61997;53.974;11.670;2023-08-24T12:41:02;0.93;;;0.60;;
73693;SDS011;61997;53.974;11.670;2023-08-24T12:43:28;1.10;;;0.70;;
73693;SDS011;61997;53.974;11.670;2023-08-24T12:45:53;0.90;;;0.60;;
73693;SDS011;61997;53.974;11.670;2023-08-24T12:48:18;2.08;;;1.00;;
73693;SDS011;61997;53.974;11.670;2023-08-24T12:50:44;1.38;;;0.60;;
73693;SDS011;61997;53.974;11.670;2023-08-24T12:53:09;2.15;;;0.70;;
73693;SDS011;61997;53.974;11.670;2023-08-24T12:55:35;1.05;;;0.63;;
73693;SDS011;61997;53.974;11.670;2023-08-24T12:58:01;1.25;;;0.70;;
73693;SDS011;61997;53.974;11.670;2023-08-24T13:00:27;0.95;;;0.60;;
73693;SDS011;61997;53.974;11.670;2023-08-24T13:02:52;0.70;;;0.50;;
73693;SDS011;61997;53.974;11.670;2023-08-24T13:05:18;2.50;;;0.80;;
73693;SDS011;61997;53.974;11.670;2023-08-24T13:07:43;1.08;;;0.65;;
73693;SDS011;61997;53.974;11.670;2023-08-24T13:10:09;1.00;;;0.80;;
73693;SDS011;61997;53.974;11.670;2023-08-24T13:12:35;1.70;;;0.55;;
73693;SDS011;61997;53.974;11.670;2023-08-24T13:15:00;0.88;;;0.52;;
73693;SDS011;61997;53.974;11.670;2023-08-24T13:17:27;1.00;;;0.50;;
73693;SDS011;61997;53.974;11.670;2023-08-24T13:19:53;1.27;;;0.60;;
73693;SDS011;61997;53.974;11.670;2023-08-24T13:22:18;1.00;;;0.70;;
73693;SDS011;61997;53.974;11.670;2023-08-24T13:24:43;1.00;;;0.70;;
73693;SDS011;61997;53.974;11.670;2023-08-24T13:27:09;1.45;;;0.60;;
73693;SDS011;61997;53.974;11.670;2023-08-24T13:29:38;1.65;;;0.70;;
73693;SDS011;61997;53.974;11.670;2023-08-24T13:32:05;1.50;;;0.70;;
73693;SDS011;61997;53.974;11.670;2023-08-24T13:34:30;1.08;;;0.73;;
73693;SDS011;61997;53.974;11.670;2023-08-24T13:36:58;1.10;;;0.60;;
73693;SDS011;61997;53.974;11.670;2023-08-24T13:39:27;1.40;;;0.60;;
73693;SDS011;61997;53.974;11.670;2023-08-24T13:41:56;1.58;;;0.70;;
73693;SDS011;61997;53.974;11.670;2023-08-24T13:44:21;1.30;;;0.80;;
73693;SDS011;61997;53.974;11.670;2023-08-24T13:46:47;1.00;;;0.70;;
73693;SDS011;61997;53.974;11.670;2023-08-24T13:49:13;1.50;;;0.70;;
73693;SDS011;61997;53.974;11.670;2023-08-24T13:51:38;1.00;;;0.63;;
73693;SDS011;61997;53.974;11.670;2023-08-24T13:54:12;2.10;;;0.70;;
73693;SDS011;61997;53.974;11.670;2023-08-24T13:56:44;1.73;;;0.77;;
73693;SDS011;61997;53.974;11.670;2023-08-24T13:59:10;2.35;;;0.70;;
73693;SDS011;61997;53.974;11.670;2023-08-24T14:01:36;1.15;;;0.75;;
73693;SDS011;61997;53.974;11.670;2023-08-24T14:04:01;1.15;;;0.60;;
73693;SDS011;61997;53.974;11.670;2023-08-24T14:06:28;1.58;;;0.63;;
73693;SDS011;61997;53.974;11.670;2023-08-24T14:08:54;1.67;;;0.60;;
73693;SDS011;61997;53.974;11.670;2023-08-24T14:11:19;1.38;;;0.60;;
73693;SDS011;61997;53.974;11.670;2023-08-24T14:13:45;0.80;;;0.60;;
73693;SDS011;61997;53.974;11.670;2023-08-24T14:16:10;0.73;;;0.50;;
73693;SDS011;61997;53.974;11.670;2023-08-24T14:18:36;0.98;;;0.70;;
73693;SDS011;61997;53.974;11.670;2023-08-24T14:21:01;0.70;;;0.50;;
73693;SDS011;61997;53.974;11.670;2023-08-24T14:23:27;1.08;;;0.70;;
73693;SDS011;61997;53.974;11.670;2023-08-24T14:25:53;1.40;;;0.70;;
73693;SDS011;61997;53.974;11.670;2023-08-24T14:28:19;0.90;;;0.63;;
73693;SDS011;61997;53.974;11.670;2023-08-24T14:30:46;1.55;;;0.68;;
73693;SDS011;61997;53.974;11.670;2023-08-24T14:33:11;0.93;;;0.63;;
73693;SDS011;61997;53.974;11.670;2023-08-24T14:35:37;1.92;;;0.80;;
73693;SDS011;61997;53.974;11.670;2023-08-24T14:38:02;0.55;;;0.45;;
73693;SDS011;61997;53.974;11.670;2023-08-24T14:40:27;0.90;;;0.55;;
73693;SDS011;61997;53.974;11.670;2023-08-24T14:42:53;1.40;;;0.73;;
73693;SDS011;61997;53.974;11.670;2023-08-24T14:45:19;1.63;;;0.80;;
73693;SDS011;61997;53.974;11.670;2023-08-24T14:47:45;0.90;;;0.70;;
73693;SDS011;61997;53.974;11.670;2023-08-24T14:50:11;1.20;;;0.65;;
73693;SDS011;61997;53.974;11.670;2023-08-24T14:52:36;1.85;;;0.75;;